sensor_id;sensor_type;location;lat;lon;timestamp;P1;durP1;ratioP1;P2;durP2;ratioP2
45296;SDS011;31040;51.622;10.420;2022-08-18T00:01:41;5.47;;;5.07;;
45296;SDS011;31040;51.622;10.420;2022-08-18T00:04:11;5.40;;;4.97;;
45296;SDS011;31040;51.622;10.420;2022-08-18T00:06:59;6.03;;;5.15;;
45296;SDS011;31040;51.622;10.420;2022-08-18T00:09:26;6.82;;;5.13;;
45296;SDS011;31040;51.622;10.420;2022-08-18T00:11:59;6.32;;;4.93;;
45296;SDS011;31040;51.622;10.420;2022-08-18T00:14:26;6.15;;;5.25;;
45296;SDS011;31040;51.622;10.420;2022-08-18T00:16:54;5.47;;;4.93;;
45296;SDS011;31040;51.622;10.420;2022-08-18T00:19:22;5.18;;;4.78;;
45296;SDS011;31040;51.622;10.420;2022-08-18T00:22:11;5.13;;;4.32;;
45296;SDS011;31040;51.622;10.420;2022-08-18T00:24:41;4.55;;;4.20;;
45296;SDS011;31040;51.622;10.420;2022-08-18T00:27:14;4.68;;;4.28;;
45296;SDS011;31040;51.622;10.420;2022-08-18T00:29:47;5.15;;;4.72;;
45296;SDS011;31040;51.622;10.420;2022-08-18T00:32:16;5.43;;;4.93;;
45296;SDS011;31040;51.622;10.420;2022-08-18T00:34:44;5.18;;;4.78;;
45296;SDS011;31040;51.622;10.420;2022-08-18T00:37:11;4.80;;;4.40;;
45296;SDS011;31040;51.622;10.420;2022-08-18T00:39:39;6.72;;;4.75;;
45296;SDS011;31040;51.622;10.420;2022-08-18T00:42:31;5.50;;;4.90;;
45296;SDS011;31040;51.622;10.420;2022-08-18T00:45:01;4.53;;;4.22;;
45296;SDS011;31040;51.622;10.420;2022-08-18T00:47:29;6.28;;;5.10;;
45296;SDS011;31040;51.622;10.420;2022-08-18T00:50:07;5.05;;;4.65;;
45296;SDS011;31040;51.622;10.420;2022-08-18T00:52:40;5.45;;;4.90;;
45296;SDS011;31040;51.622;10.420;2022-08-18T00:55:08;5.53;;;5.03;;
45296;SDS011;31040;51.622;10.420;2022-08-18T00:57:36;5.65;;;5.25;;
45296;SDS011;31040;51.622;10.420;2022-08-18T01:00:04;5.15;;;4.75;;
45296;SDS011;31040;51.622;10.420;2022-08-18T01:02:38;5.25;;;4.85;;
45296;SDS011;31040;51.622;10.420;2022-08-18T01:05:09;5.78;;;5.18;;
45296;SDS011;31040;51.622;10.420;2022-08-18T01:07:39;5.25;;;4.85;;
45296;SDS011;31040;51.622;10.420;2022-08-18T01:10:14;5.38;;;4.97;;
45296;SDS011;31040;51.622;10.420;2022-08-18T01:12:47;6.00;;;5.25;;
45296;SDS011;31040;51.622;10.420;2022-08-18T01:15:15;5.35;;;4.85;;
45296;SDS011;31040;51.622;10.420;2022-08-18T01:17:58;5.57;;;5.07;;
45296;SDS011;31040;51.622;10.420;2022-08-18T01:23:50;6.03;;;5.45;;
45296;SDS011;31040;51.622;10.420;2022-08-18T01:26:18;6.25;;;5.75;;
45296;SDS011;31040;51.622;10.420;2022-08-18T01:28:48;6.68;;;5.90;;
45296;SDS011;31040;51.622;10.420;2022-08-18T01:31:29;6.07;;;5.57;;
45296;SDS011;31040;51.622;10.420;2022-08-18T01:33:58;6.50;;;5.90;;
45296;SDS011;31040;51.622;10.420;2022-08-18T01:36:26;6.35;;;5.85;;
45296;SDS011;31040;51.622;10.420;2022-08-18T01:38:54;6.10;;;5.60;;
45296;SDS011;31040;51.622;10.420;2022-08-18T01:41:22;5.78;;;5.25;;
45296;SDS011;31040;51.622;10.420;2022-08-18T01:43:56;5.65;;;5.13;;
45296;SDS011;31040;51.622;10.420;2022-08-18T01:46:25;5.15;;;4.70;;
45296;SDS011;31040;51.622;10.420;2022-08-18T01:48:52;5.78;;;5.28;;
45296;SDS011;31040;51.622;10.420;2022-08-18T01:51:20;6.20;;;5.55;;
45296;SDS011;31040;51.622;10.420;2022-08-18T01:54:06;5.38;;;4.93;;
45296;SDS011;31040;51.622;10.420;2022-08-18T01:56:34;5.30;;;4.80;;
45296;SDS011;31040;51.622;10.420;2022-08-18T01:59:02;5.78;;;5.25;;
45296;SDS011;31040;51.622;10.420;2022-08-18T02:01:30;5.25;;;4.72;;
45296;SDS011;31040;51.622;10.420;2022-08-18T02:04:02;5.95;;;5.45;;
45296;SDS011;31040;51.622;10.420;2022-08-18T02:06:52;5.95;;;5.45;;
45296;SDS011;31040;51.622;10.420;2022-08-18T02:09:21;6.35;;;5.40;;
45296;SDS011;31040;51.622;10.420;2022-08-18T02:11:50;5.35;;;4.95;;
45296;SDS011;31040;51.622;10.420;2022-08-18T02:14:21;7.18;;;5.43;;
45296;SDS011;31040;51.622;10.420;2022-08-18T02:16:52;6.00;;;5.40;;
45296;SDS011;31040;51.622;10.420;2022-08-18T02:19:26;5.88;;;5.38;;
45296;SDS011;31040;51.622;10.420;2022-08-18T02:21:53;6.40;;;5.80;;
45296;SDS011;31040;51.622;10.420;2022-08-18T02:24:21;6.40;;;5.57;;
45296;SDS011;31040;51.622;10.420;2022-08-18T02:26:48;6.18;;;5.57;;
45296;SDS011;31040;51.622;10.420;2022-08-18T02:29:16;5.97;;;5.38;;
45296;SDS011;31040;51.622;10.420;2022-08-18T02:31:43;5.75;;;5.25;;
45296;SDS011;31040;51.622;10.420;2022-08-18T02:34:10;6.60;;;5.90;;
45296;SDS011;31040;51.622;10.420;2022-08-18T02:36:38;6.75;;;6.15;;
45296;SDS011;31040;51.622;10.420;2022-08-18T02:39:05;5.93;;;5.30;;
45296;SDS011;31040;51.622;10.420;2022-08-18T02:41:32;6.38;;;5.78;;
45296;SDS011;31040;51.622;10.420;2022-08-18T02:44:00;6.28;;;5.78;;
45296;SDS011;31040;51.622;10.420;2022-08-18T02:46:27;5.80;;;5.30;;
45296;SDS011;31040;51.622;10.420;2022-08-18T02:48:57;5.80;;;5.20;;
45296;SDS011;31040;51.622;10.420;2022-08-18T02:51:25;7.55;;;6.05;;
45296;SDS011;31040;51.622;10.420;2022-08-18T02:53:52;6.25;;;5.75;;
45296;SDS011;31040;51.622;10.420;2022-08-18T02:56:21;6.60;;;6.00;;
45296;SDS011;31040;51.622;10.420;2022-08-18T02:59:07;7.97;;;5.75;;
45296;SDS011;31040;51.622;10.420;2022-08-18T03:01:36;6.28;;;5.78;;
45296;SDS011;31040;51.622;10.420;2022-08-18T03:04:05;6.00;;;5.45;;
45296;SDS011;31040;51.622;10.420;2022-08-18T03:06:34;6.05;;;5.55;;
45296;SDS011;31040;51.622;10.420;2022-08-18T03:09:02;6.05;;;5.55;;
45296;SDS011;31040;51.622;10.420;2022-08-18T03:11:30;10.95;;;5.85;;
45296;SDS011;31040;51.622;10.420;2022-08-18T03:13:57;6.60;;;5.90;;
45296;SDS011;31040;51.622;10.420;2022-08-18T03:16:26;6.20;;;5.55;;
45296;SDS011;31040;51.622;10.420;2022-08-18T03:18:59;6.32;;;5.82;;
45296;SDS011;31040;51.622;10.420;2022-08-18T03:21:27;7.95;;;6.20;;
45296;SDS011;31040;51.622;10.420;2022-08-18T03:23:55;6.85;;;6.25;;
45296;SDS011;31040;51.622;10.420;2022-08-18T03:26:27;6.28;;;5.68;;
45296;SDS011;31040;51.622;10.420;2022-08-18T03:28:56;6.88;;;5.72;;
45296;SDS011;31040;51.622;10.420;2022-08-18T03:31:24;6.57;;;5.97;;
45296;SDS011;31040;51.622;10.420;2022-08-18T03:33:53;6.60;;;6.00;;
45296;SDS011;31040;51.622;10.420;2022-08-18T03:36:25;6.20;;;5.65;;
45296;SDS011;31040;51.622;10.420;2022-08-18T03:38:53;6.63;;;6.00;;
45296;SDS011;31040;51.622;10.420;2022-08-18T03:41:21;7.00;;;6.30;;
45296;SDS011;31040;51.622;10.420;2022-08-18T03:44:10;6.72;;;6.07;;
45296;SDS011;31040;51.622;10.420;2022-08-18T03:46:39;6.80;;;6.20;;
45296;SDS011;31040;51.622;10.420;2022-08-18T03:49:06;7.43;;;6.70;;
45296;SDS011;31040;51.622;10.420;2022-08-18T03:51:34;7.18;;;6.45;;
45296;SDS011;31040;51.622;10.420;2022-08-18T03:54:03;7.20;;;5.90;;
45296;SDS011;31040;51.622;10.420;2022-08-18T03:56:31;7.25;;;6.63;;
45296;SDS011;31040;51.622;10.420;2022-08-18T03:59:04;7.07;;;6.15;;
45296;SDS011;31040;51.622;10.420;2022-08-18T04:01:35;6.63;;;6.03;;
45296;SDS011;31040;51.622;10.420;2022-08-18T04:04:05;7.95;;;6.70;;
45296;SDS011;31040;51.622;10.420;2022-08-18T04:06:35;6.80;;;6.20;;
45296;SDS011;31040;51.622;10.420;2022-08-18T04:09:05;7.10;;;6.43;;
45296;SDS011;31040;51.622;10.420;2022-08-18T04:11:33;7.32;;;6.50;;
45296;SDS011;31040;51.622;10.420;2022-08-18T04:14:03;7.90;;;6.40;;
45296;SDS011;31040;51.622;10.420;2022-08-18T04:16:31;7.03;;;6.43;;
45296;SDS011;31040;51.622;10.420;2022-08-18T04:19:00;8.20;;;6.57;;
45296;SDS011;31040;51.622;10.420;2022-08-18T04:21:31;7.93;;;7.20;;
45296;SDS011;31040;51.622;10.420;2022-08-18T04:23:59;8.10;;;7.35;;
45296;SDS011;31040;51.622;10.420;2022-08-18T04:26:31;7.45;;;6.75;;
45296;SDS011;31040;51.622;10.420;2022-08-18T04:28:59;7.38;;;6.57;;
45296;SDS011;31040;51.622;10.420;2022-08-18T04:31:28;7.65;;;6.72;;
45296;SDS011;31040;51.622;10.420;2022-08-18T04:33:57;7.78;;;6.97;;
45296;SDS011;31040;51.622;10.420;2022-08-18T04:36:25;9.70;;;6.97;;
45296;SDS011;31040;51.622;10.420;2022-08-18T04:38:52;7.88;;;7.10;;
45296;SDS011;31040;51.622;10.420;2022-08-18T04:41:21;7.80;;;7.03;;
45296;SDS011;31040;51.622;10.420;2022-08-18T04:43:56;7.97;;;6.90;;
45296;SDS011;31040;51.622;10.420;2022-08-18T04:46:27;10.55;;;7.82;;
45296;SDS011;31040;51.622;10.420;2022-08-18T04:48:56;8.13;;;7.13;;
45296;SDS011;31040;51.622;10.420;2022-08-18T04:51:26;7.10;;;6.47;;
45296;SDS011;31040;51.622;10.420;2022-08-18T04:54:14;7.93;;;6.82;;
45296;SDS011;31040;51.622;10.420;2022-08-18T04:56:42;7.97;;;7.22;;
45296;SDS011;31040;51.622;10.420;2022-08-18T04:59:11;7.80;;;7.10;;
45296;SDS011;31040;51.622;10.420;2022-08-18T05:01:42;7.05;;;6.45;;
45296;SDS011;31040;51.622;10.420;2022-08-18T05:04:14;6.97;;;6.38;;
45296;SDS011;31040;51.622;10.420;2022-08-18T05:06:42;8.50;;;7.60;;
45296;SDS011;31040;51.622;10.420;2022-08-18T05:09:11;8.45;;;7.65;;
45296;SDS011;31040;51.622;10.420;2022-08-18T05:11:47;9.52;;;7.13;;
45296;SDS011;31040;51.622;10.420;2022-08-18T05:14:16;8.23;;;7.43;;
45296;SDS011;31040;51.622;10.420;2022-08-18T05:16:43;7.63;;;6.90;;
45296;SDS011;31040;51.622;10.420;2022-08-18T05:19:16;7.50;;;6.70;;
45296;SDS011;31040;51.622;10.420;2022-08-18T05:21:52;7.13;;;6.43;;
45296;SDS011;31040;51.622;10.420;2022-08-18T05:24:26;7.25;;;6.55;;
45296;SDS011;31040;51.622;10.420;2022-08-18T05:27:02;7.50;;;6.82;;
45296;SDS011;31040;51.622;10.420;2022-08-18T05:29:30;8.15;;;7.35;;
45296;SDS011;31040;51.622;10.420;2022-08-18T05:32:07;7.60;;;6.80;;
45296;SDS011;31040;51.622;10.420;2022-08-18T05:34:34;9.70;;;7.45;;
45296;SDS011;31040;51.622;10.420;2022-08-18T05:37:18;8.25;;;7.40;;
45296;SDS011;31040;51.622;10.420;2022-08-18T05:39:59;8.43;;;7.63;;
45296;SDS011;31040;51.622;10.420;2022-08-18T05:42:36;7.68;;;7.05;;
45296;SDS011;31040;51.622;10.420;2022-08-18T05:45:09;10.20;;;7.28;;
45296;SDS011;31040;51.622;10.420;2022-08-18T05:47:37;8.73;;;6.72;;
45296;SDS011;31040;51.622;10.420;2022-08-18T05:50:10;8.90;;;7.15;;
45296;SDS011;31040;51.622;10.420;2022-08-18T05:52:51;8.27;;;7.22;;
45296;SDS011;31040;51.622;10.420;2022-08-18T05:55:35;10.10;;;7.68;;
45296;SDS011;31040;51.622;10.420;2022-08-18T05:58:40;11.88;;;8.18;;
45296;SDS011;31040;51.622;10.420;2022-08-18T06:01:12;12.63;;;8.38;;
45296;SDS011;31040;51.622;10.420;2022-08-18T06:03:46;11.50;;;8.23;;
45296;SDS011;31040;51.622;10.420;2022-08-18T06:06:17;10.57;;;8.38;;
45296;SDS011;31040;51.622;10.420;2022-08-18T06:08:55;12.60;;;8.23;;
45296;SDS011;31040;51.622;10.420;2022-08-18T06:11:24;12.45;;;9.80;;
45296;SDS011;31040;51.622;10.420;2022-08-18T06:13:51;9.40;;;8.50;;
45296;SDS011;31040;51.622;10.420;2022-08-18T06:19:00;13.10;;;10.38;;
45296;SDS011;31040;51.622;10.420;2022-08-18T06:26:56;13.63;;;12.00;;
45296;SDS011;31040;51.622;10.420;2022-08-18T06:37:16;14.45;;;11.00;;
45296;SDS011;31040;51.622;10.420;2022-08-18T06:39:46;13.80;;;10.93;;
45296;SDS011;31040;51.622;10.420;2022-08-18T06:42:15;15.32;;;12.38;;
45296;SDS011;31040;51.622;10.420;2022-08-18T06:44:44;19.92;;;12.82;;
45296;SDS011;31040;51.622;10.420;2022-08-18T06:47:29;16.77;;;12.20;;
45296;SDS011;31040;51.622;10.420;2022-08-18T06:50:04;14.43;;;11.83;;
45296;SDS011;31040;51.622;10.420;2022-08-18T06:52:36;13.05;;;10.48;;
45296;SDS011;31040;51.622;10.420;2022-08-18T06:55:09;17.33;;;12.90;;
45296;SDS011;31040;51.622;10.420;2022-08-18T06:57:51;16.17;;;12.55;;
45296;SDS011;31040;51.622;10.420;2022-08-18T07:00:23;14.43;;;12.88;;
45296;SDS011;31040;51.622;10.420;2022-08-18T07:02:52;12.50;;;10.20;;
45296;SDS011;31040;51.622;10.420;2022-08-18T07:05:25;15.25;;;13.40;;
45296;SDS011;31040;51.622;10.420;2022-08-18T07:08:13;27.95;;;17.92;;
45296;SDS011;31040;51.622;10.420;2022-08-18T07:10:48;34.38;;;19.98;;
45296;SDS011;31040;51.622;10.420;2022-08-18T07:13:20;28.67;;;19.85;;
45296;SDS011;31040;51.622;10.420;2022-08-18T07:15:51;30.40;;;21.88;;
45296;SDS011;31040;51.622;10.420;2022-08-18T07:18:23;28.55;;;22.73;;
45296;SDS011;31040;51.622;10.420;2022-08-18T07:21:00;29.73;;;22.30;;
45296;SDS011;31040;51.622;10.420;2022-08-18T07:23:30;25.48;;;20.60;;
45296;SDS011;31040;51.622;10.420;2022-08-18T07:28:41;29.05;;;22.98;;
45296;SDS011;31040;51.622;10.420;2022-08-18T07:31:23;29.65;;;23.88;;
45296;SDS011;31040;51.622;10.420;2022-08-18T07:36:22;28.08;;;23.73;;
45296;SDS011;31040;51.622;10.420;2022-08-18T07:38:53;32.95;;;24.45;;
45296;SDS011;31040;51.622;10.420;2022-08-18T07:41:24;30.17;;;24.35;;
45296;SDS011;31040;51.622;10.420;2022-08-18T07:44:02;31.85;;;24.92;;
45296;SDS011;31040;51.622;10.420;2022-08-18T07:46:47;28.27;;;24.52;;
45296;SDS011;31040;51.622;10.420;2022-08-18T07:49:18;29.48;;;25.25;;
45296;SDS011;31040;51.622;10.420;2022-08-18T07:52:35;28.48;;;23.05;;
45296;SDS011;31040;51.622;10.420;2022-08-18T08:08:38;30.35;;;25.35;;
45296;SDS011;31040;51.622;10.420;2022-08-18T08:20:01;32.20;;;26.60;;
45296;SDS011;31040;51.622;10.420;2022-08-18T08:22:53;37.22;;;26.75;;
45296;SDS011;31040;51.622;10.420;2022-08-18T08:25:18;29.80;;;24.52;;
45296;SDS011;31040;51.622;10.420;2022-08-18T08:30:39;29.73;;;26.58;;
45296;SDS011;31040;51.622;10.420;2022-08-18T08:33:13;28.30;;;24.55;;
45296;SDS011;31040;51.622;10.420;2022-08-18T08:36:18;30.48;;;24.65;;
45296;SDS011;31040;51.622;10.420;2022-08-18T08:38:41;29.42;;;25.92;;
45296;SDS011;31040;51.622;10.420;2022-08-18T08:41:18;32.42;;;26.67;;
45296;SDS011;31040;51.622;10.420;2022-08-18T08:43:48;32.38;;;25.88;;
45296;SDS011;31040;51.622;10.420;2022-08-18T08:46:21;33.05;;;26.08;;
45296;SDS011;31040;51.622;10.420;2022-08-18T08:48:58;30.80;;;26.27;;
45296;SDS011;31040;51.622;10.420;2022-08-18T08:56:32;29.63;;;26.52;;
45296;SDS011;31040;51.622;10.420;2022-08-18T08:59:09;32.05;;;26.45;;
45296;SDS011;31040;51.622;10.420;2022-08-18T09:04:36;31.83;;;26.95;;
45296;SDS011;31040;51.622;10.420;2022-08-18T09:25:47;31.38;;;26.45;;
45296;SDS011;31040;51.622;10.420;2022-08-18T09:28:17;28.67;;;25.45;;
45296;SDS011;31040;51.622;10.420;2022-08-18T09:38:37;29.08;;;22.85;;
45296;SDS011;31040;51.622;10.420;2022-08-18T09:41:32;25.63;;;22.98;;
45296;SDS011;31040;51.622;10.420;2022-08-18T09:46:53;27.83;;;24.52;;
45296;SDS011;31040;51.622;10.420;2022-08-18T09:57:19;27.65;;;23.17;;
45296;SDS011;31040;51.622;10.420;2022-08-18T10:07:43;36.40;;;30.20;;
45296;SDS011;31040;51.622;10.420;2022-08-18T10:10:13;34.78;;;31.00;;
45296;SDS011;31040;51.622;10.420;2022-08-18T10:23:07;44.45;;;36.95;;
45296;SDS011;31040;51.622;10.420;2022-08-18T10:28:10;44.40;;;38.20;;
45296;SDS011;31040;51.622;10.420;2022-08-18T10:31:01;43.28;;;35.90;;
45296;SDS011;31040;51.622;10.420;2022-08-18T10:39:09;43.53;;;38.78;;
45296;SDS011;31040;51.622;10.420;2022-08-18T10:41:37;42.10;;;36.97;;
45296;SDS011;31040;51.622;10.420;2022-08-18T10:44:12;43.78;;;35.55;;
45296;SDS011;31040;51.622;10.420;2022-08-18T10:47:00;40.00;;;35.47;;
45296;SDS011;31040;51.622;10.420;2022-08-18T10:49:37;41.10;;;36.10;;
45296;SDS011;31040;51.622;10.420;2022-08-18T10:58:32;36.08;;;31.17;;
45296;SDS011;31040;51.622;10.420;2022-08-18T11:01:20;34.00;;;30.20;;
45296;SDS011;31040;51.622;10.420;2022-08-18T11:07:02;37.20;;;32.15;;
45296;SDS011;31040;51.622;10.420;2022-08-18T11:09:33;36.10;;;32.13;;
45296;SDS011;31040;51.622;10.420;2022-08-18T11:12:06;37.75;;;33.35;;
45296;SDS011;31040;51.622;10.420;2022-08-18T11:17:12;41.88;;;34.88;;
45296;SDS011;31040;51.622;10.420;2022-08-18T11:19:43;43.28;;;36.50;;
45296;SDS011;31040;51.622;10.420;2022-08-18T11:24:58;40.15;;;35.78;;
45296;SDS011;31040;51.622;10.420;2022-08-18T11:27:29;42.65;;;37.75;;
45296;SDS011;31040;51.622;10.420;2022-08-18T11:30:01;46.65;;;38.42;;
45296;SDS011;31040;51.622;10.420;2022-08-18T11:32:29;44.53;;;38.05;;
45296;SDS011;31040;51.622;10.420;2022-08-18T11:35:04;40.78;;;36.40;;
45296;SDS011;31040;51.622;10.420;2022-08-18T11:40:25;42.85;;;37.13;;
45296;SDS011;31040;51.622;10.420;2022-08-18T11:43:15;40.75;;;35.70;;
45296;SDS011;31040;51.622;10.420;2022-08-18T11:48:21;49.42;;;39.55;;
45296;SDS011;31040;51.622;10.420;2022-08-18T11:51:16;49.55;;;38.20;;
45296;SDS011;31040;51.622;10.420;2022-08-18T11:58:56;41.08;;;34.00;;
45296;SDS011;31040;51.622;10.420;2022-08-18T12:01:27;44.20;;;34.55;;
45296;SDS011;31040;51.622;10.420;2022-08-18T12:06:52;38.78;;;33.50;;
45296;SDS011;31040;51.622;10.420;2022-08-18T12:12:27;40.33;;;35.65;;
45296;SDS011;31040;51.622;10.420;2022-08-18T12:17:52;37.40;;;31.63;;
45296;SDS011;31040;51.622;10.420;2022-08-18T12:20:19;44.28;;;37.33;;
45296;SDS011;31040;51.622;10.420;2022-08-18T12:22:48;41.38;;;36.05;;
45296;SDS011;31040;51.622;10.420;2022-08-18T12:25:18;44.78;;;38.28;;
45296;SDS011;31040;51.622;10.420;2022-08-18T12:27:50;41.00;;;34.38;;
45296;SDS011;31040;51.622;10.420;2022-08-18T12:30:18;40.50;;;36.08;;
45296;SDS011;31040;51.622;10.420;2022-08-18T12:32:45;41.13;;;33.95;;
45296;SDS011;31040;51.622;10.420;2022-08-18T12:35:16;46.35;;;35.70;;
45296;SDS011;31040;51.622;10.420;2022-08-18T12:37:47;44.25;;;38.22;;
45296;SDS011;31040;51.622;10.420;2022-08-18T12:40:35;45.58;;;36.45;;
45296;SDS011;31040;51.622;10.420;2022-08-18T12:43:02;46.67;;;38.45;;
45296;SDS011;31040;51.622;10.420;2022-08-18T12:45:31;47.28;;;38.78;;
45296;SDS011;31040;51.622;10.420;2022-08-18T12:47:59;43.85;;;37.78;;
45296;SDS011;31040;51.622;10.420;2022-08-18T12:50:29;48.15;;;39.50;;
45296;SDS011;31040;51.622;10.420;2022-08-18T12:53:04;42.63;;;36.97;;
45296;SDS011;31040;51.622;10.420;2022-08-18T12:55:34;45.50;;;36.63;;
45296;SDS011;31040;51.622;10.420;2022-08-18T12:58:09;49.58;;;40.97;;
45296;SDS011;31040;51.622;10.420;2022-08-18T13:00:37;50.88;;;41.35;;
45296;SDS011;31040;51.622;10.420;2022-08-18T13:03:06;47.78;;;39.80;;
45296;SDS011;31040;51.622;10.420;2022-08-18T13:05:34;45.20;;;38.55;;
45296;SDS011;31040;51.622;10.420;2022-08-18T13:08:03;44.83;;;38.83;;
45296;SDS011;31040;51.622;10.420;2022-08-18T13:10:32;45.60;;;39.47;;
45296;SDS011;31040;51.622;10.420;2022-08-18T13:13:15;43.75;;;37.75;;
45296;SDS011;31040;51.622;10.420;2022-08-18T13:15:43;45.58;;;37.03;;
45296;SDS011;31040;51.622;10.420;2022-08-18T13:18:24;53.08;;;40.10;;
45296;SDS011;31040;51.622;10.420;2022-08-18T13:20:55;47.47;;;40.15;;
45296;SDS011;31040;51.622;10.420;2022-08-18T13:23:24;46.08;;;39.20;;
45296;SDS011;31040;51.622;10.420;2022-08-18T13:25:53;48.88;;;39.13;;
45296;SDS011;31040;51.622;10.420;2022-08-18T13:28:27;44.63;;;38.08;;
45296;SDS011;31040;51.622;10.420;2022-08-18T13:31:01;45.78;;;38.45;;
45296;SDS011;31040;51.622;10.420;2022-08-18T13:33:30;44.53;;;39.13;;
45296;SDS011;31040;51.622;10.420;2022-08-18T13:36:18;44.53;;;37.97;;
45296;SDS011;31040;51.622;10.420;2022-08-18T13:38:48;47.17;;;39.30;;
45296;SDS011;31040;51.622;10.420;2022-08-18T13:41:15;45.88;;;38.72;;
45296;SDS011;31040;51.622;10.420;2022-08-18T13:43:43;49.08;;;39.42;;
45296;SDS011;31040;51.622;10.420;2022-08-18T13:46:15;44.72;;;38.25;;
45296;SDS011;31040;51.622;10.420;2022-08-18T13:48:42;44.50;;;36.20;;
45296;SDS011;31040;51.622;10.420;2022-08-18T13:51:17;47.53;;;39.00;;
45296;SDS011;31040;51.622;10.420;2022-08-18T13:53:48;43.63;;;38.30;;
45296;SDS011;31040;51.622;10.420;2022-08-18T13:56:36;45.78;;;38.92;;
45296;SDS011;31040;51.622;10.420;2022-08-18T13:59:05;41.67;;;36.13;;
45296;SDS011;31040;51.622;10.420;2022-08-18T14:01:32;43.40;;;37.65;;
45296;SDS011;31040;51.622;10.420;2022-08-18T14:04:17;45.53;;;38.47;;
45296;SDS011;31040;51.622;10.420;2022-08-18T14:06:46;42.03;;;36.58;;
45296;SDS011;31040;51.622;10.420;2022-08-18T14:09:23;43.50;;;36.55;;
45296;SDS011;31040;51.622;10.420;2022-08-18T14:12:03;41.88;;;36.63;;
45296;SDS011;31040;51.622;10.420;2022-08-18T14:14:40;42.50;;;35.50;;
45296;SDS011;31040;51.622;10.420;2022-08-18T14:17:07;35.90;;;32.03;;
45296;SDS011;31040;51.622;10.420;2022-08-18T14:19:35;41.67;;;35.30;;
45296;SDS011;31040;51.622;10.420;2022-08-18T14:22:22;38.58;;;33.10;;
45296;SDS011;31040;51.622;10.420;2022-08-18T14:25:08;34.92;;;31.13;;
45296;SDS011;31040;51.622;10.420;2022-08-18T14:27:54;33.50;;;29.88;;
45296;SDS011;31040;51.622;10.420;2022-08-18T14:30:29;30.60;;;27.45;;
45296;SDS011;31040;51.622;10.420;2022-08-18T14:32:57;32.25;;;27.90;;
45296;SDS011;31040;51.622;10.420;2022-08-18T14:35:25;30.95;;;27.77;;
45296;SDS011;31040;51.622;10.420;2022-08-18T14:38:13;30.45;;;27.05;;
45296;SDS011;31040;51.622;10.420;2022-08-18T14:40:42;31.88;;;26.88;;
45296;SDS011;31040;51.622;10.420;2022-08-18T14:43:10;30.98;;;27.70;;
45296;SDS011;31040;51.622;10.420;2022-08-18T14:45:40;29.33;;;26.10;;
45296;SDS011;31040;51.622;10.420;2022-08-18T14:48:24;30.70;;;27.35;;
45296;SDS011;31040;51.622;10.420;2022-08-18T14:50:57;28.80;;;25.83;;
45296;SDS011;31040;51.622;10.420;2022-08-18T14:53:35;29.30;;;25.50;;
45296;SDS011;31040;51.622;10.420;2022-08-18T14:56:09;28.60;;;25.25;;
45296;SDS011;31040;51.622;10.420;2022-08-18T14:58:42;25.95;;;23.33;;
45296;SDS011;31040;51.622;10.420;2022-08-18T15:01:21;28.35;;;24.75;;
45296;SDS011;31040;51.622;10.420;2022-08-18T15:04:04;25.50;;;22.90;;
45296;SDS011;31040;51.622;10.420;2022-08-18T15:06:46;26.52;;;23.58;;
45296;SDS011;31040;51.622;10.420;2022-08-18T15:09:24;27.05;;;24.15;;
45296;SDS011;31040;51.622;10.420;2022-08-18T15:11:58;25.98;;;22.38;;
45296;SDS011;31040;51.622;10.420;2022-08-18T15:14:31;29.05;;;24.10;;
45296;SDS011;31040;51.622;10.420;2022-08-18T15:17:05;26.23;;;23.55;;
45296;SDS011;31040;51.622;10.420;2022-08-18T15:19:40;23.35;;;21.00;;
45296;SDS011;31040;51.622;10.420;2022-08-18T15:22:26;23.95;;;21.40;;
45296;SDS011;31040;51.622;10.420;2022-08-18T15:25:16;21.17;;;19.05;;
45296;SDS011;31040;51.622;10.420;2022-08-18T15:28:07;23.77;;;21.27;;
45296;SDS011;31040;51.622;10.420;2022-08-18T15:30:43;25.38;;;21.17;;
45296;SDS011;31040;51.622;10.420;2022-08-18T15:33:18;23.65;;;20.75;;
45296;SDS011;31040;51.622;10.420;2022-08-18T15:35:58;21.00;;;18.88;;
45296;SDS011;31040;51.622;10.420;2022-08-18T15:38:36;21.75;;;19.45;;
45296;SDS011;31040;51.622;10.420;2022-08-18T15:41:34;22.25;;;17.98;;
45296;SDS011;31040;51.622;10.420;2022-08-18T15:44:11;22.73;;;17.73;;
45296;SDS011;31040;51.622;10.420;2022-08-18T15:46:45;18.92;;;16.98;;
45296;SDS011;31040;51.622;10.420;2022-08-18T15:49:19;17.23;;;15.50;;
45296;SDS011;31040;51.622;10.420;2022-08-18T15:51:59;19.60;;;16.25;;
45296;SDS011;31040;51.622;10.420;2022-08-18T15:54:38;18.33;;;16.52;;
45296;SDS011;31040;51.622;10.420;2022-08-18T15:57:16;18.48;;;16.58;;
45296;SDS011;31040;51.622;10.420;2022-08-18T16:00:13;19.17;;;16.92;;
45296;SDS011;31040;51.622;10.420;2022-08-18T16:02:53;19.05;;;17.08;;
45296;SDS011;31040;51.622;10.420;2022-08-18T16:05:30;18.98;;;17.17;;
45296;SDS011;31040;51.622;10.420;2022-08-18T16:08:07;17.85;;;16.20;;
45296;SDS011;31040;51.622;10.420;2022-08-18T16:10:42;17.40;;;15.73;;
45296;SDS011;31040;51.622;10.420;2022-08-18T16:13:18;18.23;;;16.40;;
45296;SDS011;31040;51.622;10.420;2022-08-18T16:15:51;18.00;;;16.20;;
45296;SDS011;31040;51.622;10.420;2022-08-18T16:18:24;18.40;;;16.25;;
45296;SDS011;31040;51.622;10.420;2022-08-18T16:21:04;17.92;;;16.25;;
45296;SDS011;31040;51.622;10.420;2022-08-18T16:23:41;16.65;;;15.07;;
45296;SDS011;31040;51.622;10.420;2022-08-18T16:26:15;16.45;;;14.73;;
45296;SDS011;31040;51.622;10.420;2022-08-18T16:28:50;19.85;;;17.95;;
45296;SDS011;31040;51.622;10.420;2022-08-18T16:31:28;20.38;;;17.65;;
45296;SDS011;31040;51.622;10.420;2022-08-18T16:34:01;18.80;;;17.08;;
45296;SDS011;31040;51.622;10.420;2022-08-18T16:36:38;19.92;;;16.15;;
45296;SDS011;31040;51.622;10.420;2022-08-18T16:39:12;19.35;;;17.50;;
45296;SDS011;31040;51.622;10.420;2022-08-18T16:41:46;16.73;;;14.93;;
45296;SDS011;31040;51.622;10.420;2022-08-18T16:44:18;17.05;;;15.32;;
45296;SDS011;31040;51.622;10.420;2022-08-18T16:46:50;17.85;;;16.05;;
45296;SDS011;31040;51.622;10.420;2022-08-18T16:49:22;18.75;;;16.95;;
45296;SDS011;31040;51.622;10.420;2022-08-18T16:51:54;18.08;;;16.30;;
45296;SDS011;31040;51.622;10.420;2022-08-18T16:54:27;18.17;;;16.42;;
45296;SDS011;31040;51.622;10.420;2022-08-18T16:57:00;18.30;;;16.52;;
45296;SDS011;31040;51.622;10.420;2022-08-18T16:59:34;17.45;;;15.70;;
45296;SDS011;31040;51.622;10.420;2022-08-18T17:02:23;16.73;;;15.07;;
45296;SDS011;31040;51.622;10.420;2022-08-18T17:05:10;17.17;;;15.52;;
45296;SDS011;31040;51.622;10.420;2022-08-18T17:07:43;16.63;;;14.80;;
45296;SDS011;31040;51.622;10.420;2022-08-18T17:10:15;31.55;;;16.65;;
45296;SDS011;31040;51.622;10.420;2022-08-18T17:12:53;16.25;;;14.57;;
45296;SDS011;31040;51.622;10.420;2022-08-18T17:15:32;16.85;;;15.35;;
45296;SDS011;31040;51.622;10.420;2022-08-18T17:18:09;15.48;;;14.05;;
45296;SDS011;31040;51.622;10.420;2022-08-18T17:20:42;16.85;;;15.25;;
45296;SDS011;31040;51.622;10.420;2022-08-18T17:23:15;18.48;;;16.77;;
45296;SDS011;31040;51.622;10.420;2022-08-18T17:25:54;17.42;;;15.68;;
45296;SDS011;31040;51.622;10.420;2022-08-18T17:28:51;16.35;;;14.88;;
45296;SDS011;31040;51.622;10.420;2022-08-18T17:31:22;16.40;;;14.90;;